createdAt,value
2019-04-06T00:01:12.112Z,15.00
2019-04-06T00:02:48.321Z,10.67
2019-04-06T00:04:24.487Z,15.17
2019-04-06T00:06:00.820Z,16.60
2019-04-06T00:07:37.259Z,14.50
2019-04-06T00:09:13.573Z,12.30
2019-04-06T00:10:49.979Z,10.37
2019-04-06T00:12:26.242Z,14.07
2019-04-06T00:14:02.586Z,14.23
2019-04-06T00:15:39.098Z,13.83
2019-04-06T00:17:15.331Z,16.10
2019-04-06T00:18:52.331Z,15.53
2019-04-06T00:20:29.690Z,15.00
2019-04-06T00:22:06.004Z,13.20
2019-04-06T00:23:42.263Z,14.93
2019-04-06T00:25:18.505Z,14.53
2019-04-06T00:26:54.781Z,12.17
2019-04-06T00:28:31.110Z,15.27
2019-04-06T00:30:09.354Z,16.07
2019-04-06T00:31:47.261Z,16.43
2019-04-06T00:33:28.136Z,16.33
2019-04-06T00:35:06.785Z,13.37
2019-04-06T00:36:44.031Z,16.03
2019-04-06T00:38:20.429Z,15.90
2019-04-06T00:39:56.677Z,16.13
2019-04-06T00:41:33.118Z,15.33
2019-04-06T00:43:09.523Z,15.10
2019-04-06T00:44:45.768Z,15.90
2019-04-06T00:46:22.079Z,14.83
2019-04-06T00:47:58.237Z,15.00
2019-04-06T00:49:35.683Z,15.20
2019-04-06T00:51:13.146Z,16.67
2019-04-06T00:52:49.310Z,14.27
2019-04-06T00:54:25.651Z,15.53
2019-04-06T00:56:01.814Z,14.67
2019-04-06T00:57:37.999Z,14.57
2019-04-06T00:59:14.329Z,16.60
2019-04-06T01:00:51.243Z,15.03
2019-04-06T01:02:27.518Z,15.87
2019-04-06T01:04:03.881Z,14.87
2019-04-06T01:05:40.283Z,16.67
2019-04-06T01:07:16.538Z,17.17
2019-04-06T01:08:52.778Z,16.30
2019-04-06T01:10:28.939Z,15.87
2019-04-06T01:12:06.506Z,17.40
2019-04-06T01:13:42.757Z,17.13
2019-04-06T01:15:18.997Z,18.47
2019-04-06T01:16:55.327Z,17.60
2019-04-06T01:18:31.558Z,18.17
2019-04-06T01:20:08.356Z,16.93
2019-04-06T01:21:44.761Z,17.97
2019-04-06T01:23:21.059Z,17.90
2019-04-06T01:24:57.316Z,19.10
2019-04-06T01:26:33.873Z,19.53
2019-04-06T01:28:10.133Z,16.50
2019-04-06T01:29:46.334Z,17.03
2019-04-06T01:31:22.670Z,16.97
2019-04-06T01:32:58.925Z,17.20
2019-04-06T01:34:35.264Z,19.60
2019-04-06T01:36:12.526Z,17.37
2019-04-06T01:37:48.698Z,18.20
2019-04-06T01:39:24.880Z,17.93
2019-04-06T01:41:01.223Z,16.43
2019-04-06T01:42:37.461Z,17.03
2019-04-06T01:44:13.726Z,18.23
2019-04-06T01:45:49.960Z,16.53
2019-04-06T01:47:26.155Z,16.20
2019-04-06T01:49:02.349Z,12.27
2019-04-06T01:50:38.609Z,15.73
2019-04-06T01:52:14.777Z,17.63
2019-04-06T01:54:10.314Z,13.17
2019-04-06T01:55:46.625Z,11.83
2019-04-06T01:57:22.791Z,14.87
2019-04-06T01:58:59.097Z,16.40
2019-04-06T02:00:35.462Z,15.90
2019-04-06T02:02:20.369Z,16.33
2019-04-06T02:03:56.592Z,16.77
2019-04-06T02:05:32.760Z,13.83
2019-04-06T02:07:09.138Z,11.00
2019-04-06T02:08:45.508Z,14.30
2019-04-06T02:10:24.494Z,16.13
2019-04-06T02:12:00.646Z,15.47
2019-04-06T02:13:37.016Z,12.47
2019-04-06T02:15:14.631Z,16.93
2019-04-06T02:16:50.578Z,12.93
2019-04-06T02:18:26.989Z,15.87
2019-04-06T02:20:03.486Z,14.20
2019-04-06T02:21:39.801Z,14.27
2019-04-06T02:23:15.610Z,15.03
2019-04-06T02:24:51.673Z,15.77
2019-04-06T02:26:30.970Z,10.40
2019-04-06T02:28:05.879Z,12.30
2019-04-06T02:29:42.263Z,9.17
2019-04-06T02:31:23.146Z,11.50
2019-04-06T02:33:10.025Z,11.47
2019-04-06T02:34:48.910Z,14.63
2019-04-06T02:36:42.813Z,13.20
2019-04-06T02:38:36.941Z,8.97
2019-04-06T02:40:21.717Z,7.97
2019-04-06T02:42:05.493Z,9.80
2019-04-06T02:43:42.253Z,12.13
2019-04-06T02:45:18.547Z,13.23
2019-04-06T02:46:54.714Z,11.57
2019-04-06T02:48:31.032Z,13.87
2019-04-06T02:50:09.358Z,14.47
2019-04-06T02:51:45.434Z,10.73
2019-04-06T02:53:21.831Z,12.03
2019-04-06T02:54:58.060Z,12.23
2019-04-06T02:56:45.606Z,9.40
2019-04-06T02:58:12.481Z,12.73
2019-04-06T02:59:48.799Z,10.37
2019-04-06T03:01:25.171Z,15.03
2019-04-06T03:03:01.933Z,13.40
2019-04-06T03:04:38.322Z,13.63
2019-04-06T03:06:14.629Z,11.07
2019-04-06T03:07:50.941Z,10.60
2019-04-06T03:09:28.747Z,11.73
2019-04-06T03:11:05.202Z,14.10
2019-04-06T03:12:41.581Z,11.17
2019-04-06T03:14:17.803Z,10.30
2019-04-06T03:15:55.223Z,14.03
2019-04-06T03:17:31.621Z,15.27
2019-04-06T03:19:07.896Z,12.87
2019-04-06T03:20:44.184Z,11.90
2019-04-06T03:22:20.781Z,12.47
2019-04-06T03:23:57.107Z,7.63
2019-04-06T03:25:33.431Z,10.80
2019-04-06T03:27:09.783Z,12.90
2019-04-06T03:28:46.231Z,11.33
2019-04-06T03:30:22.582Z,13.17
2019-04-06T03:31:58.286Z,13.77
2019-04-06T03:33:34.595Z,14.03
2019-04-06T03:35:12.360Z,12.60
2019-04-06T03:36:48.601Z,12.13
2019-04-06T03:38:24.890Z,8.97
2019-04-06T03:40:01.422Z,14.70
2019-04-06T03:41:37.666Z,13.53
2019-04-06T03:43:14.002Z,14.57
2019-04-06T03:44:50.170Z,8.93
2019-04-06T03:46:26.373Z,6.83
2019-04-06T03:48:02.747Z,13.63
2019-04-06T03:49:39.016Z,13.03
2019-04-06T03:51:15.278Z,12.07
2019-04-06T03:52:51.587Z,12.10
2019-04-06T03:54:27.825Z,10.93
2019-04-06T03:56:04.175Z,13.17
2019-04-06T03:57:40.424Z,12.90
2019-04-06T03:59:16.507Z,11.60
2019-04-06T04:00:52.775Z,13.27
2019-04-06T04:02:29.038Z,15.03
2019-04-06T04:04:05.515Z,8.83
2019-04-06T04:05:42.441Z,15.03
2019-04-06T04:07:18.618Z,13.33
2019-04-06T04:08:54.951Z,10.57
2019-04-06T04:10:38.074Z,8.97
2019-04-06T04:12:15.422Z,6.77
2019-04-06T04:13:51.691Z,14.20
2019-04-06T04:15:28.023Z,10.50
2019-04-06T04:17:04.007Z,10.27
2019-04-06T04:18:40.277Z,14.97
2019-04-06T04:20:16.725Z,6.33
2019-04-06T04:21:52.990Z,13.93
2019-04-06T04:23:30.343Z,13.50
2019-04-06T04:25:07.336Z,13.47
2019-04-06T04:26:43.566Z,8.20
2019-04-06T04:28:19.808Z,12.73
2019-04-06T04:29:55.900Z,13.93
2019-04-06T04:31:32.136Z,10.03
2019-04-06T04:33:08.278Z,8.70
2019-04-06T04:34:44.538Z,10.33
2019-04-06T04:36:20.788Z,16.30
2019-04-06T04:37:56.964Z,13.90
2019-04-06T04:39:33.537Z,14.87
2019-04-06T04:41:09.852Z,9.83
2019-04-06T04:42:47.205Z,14.07
2019-04-06T04:44:23.584Z,12.47
2019-04-06T04:45:59.892Z,14.33
2019-04-06T04:47:36.078Z,13.30
2019-04-06T04:49:13.346Z,14.87
2019-04-06T04:50:49.502Z,13.30
2019-04-06T04:52:25.619Z,15.17
2019-04-06T04:54:01.845Z,9.30
2019-04-06T04:55:38.038Z,13.47
2019-04-06T04:57:14.442Z,11.23
2019-04-06T04:58:50.302Z,10.33
2019-04-06T05:00:26.633Z,12.37
2019-04-06T05:02:02.797Z,15.43
2019-04-06T05:03:39.148Z,14.40
2019-04-06T05:05:15.213Z,14.60
2019-04-06T05:06:51.436Z,8.90
2019-04-06T05:08:27.699Z,13.23
2019-04-06T05:10:06.320Z,14.00
2019-04-06T05:11:42.510Z,14.23
2019-04-06T05:13:18.714Z,15.60
2019-04-06T05:15:05.196Z,10.57
2019-04-06T05:16:42.538Z,12.70
2019-04-06T05:18:20.370Z,12.80
2019-04-06T05:19:56.909Z,14.27
2019-04-06T05:21:33.304Z,15.20
2019-04-06T05:23:10.107Z,9.17
2019-04-06T05:24:46.392Z,13.63
2019-04-06T05:26:22.579Z,14.37
2019-04-06T05:27:58.837Z,12.23
2019-04-06T05:29:35.293Z,13.43
2019-04-06T05:31:11.743Z,14.27
2019-04-06T05:32:48.251Z,16.37
2019-04-06T05:34:24.380Z,13.90
2019-04-06T05:36:00.788Z,16.47
2019-04-06T05:37:37.036Z,12.07
2019-04-06T05:39:13.242Z,14.53
2019-04-06T05:40:49.456Z,14.00
2019-04-06T05:42:25.817Z,13.47
2019-04-06T05:44:02.144Z,11.90
2019-04-06T05:45:38.334Z,15.17
2019-04-06T05:47:14.456Z,14.97
2019-04-06T05:48:50.541Z,13.67
2019-04-06T05:50:26.820Z,14.73
2019-04-06T05:52:03.240Z,14.10
2019-04-06T05:53:39.401Z,14.73
2019-04-06T05:55:15.799Z,14.33
2019-04-06T05:56:52.105Z,14.33
2019-04-06T05:58:28.360Z,10.93
2019-04-06T06:00:09.843Z,14.13
2019-04-06T06:01:45.072Z,11.90
2019-04-06T06:03:21.413Z,13.87
2019-04-06T06:04:57.634Z,11.73
2019-04-06T06:06:33.866Z,13.93
2019-04-06T06:08:11.372Z,14.33
2019-04-06T06:09:48.730Z,9.17
2019-04-06T06:11:44.356Z,16.20
2019-04-06T06:13:20.628Z,14.00
2019-04-06T06:14:58.043Z,12.70
2019-04-06T06:16:34.688Z,8.30
2019-04-06T06:18:11.223Z,14.23
2019-04-06T06:19:47.573Z,10.80
2019-04-06T06:21:23.809Z,14.23
2019-04-06T06:23:00.128Z,8.97
2019-04-06T06:24:36.610Z,12.17
2019-04-06T06:26:12.856Z,12.60
2019-04-06T06:27:49.075Z,9.60
2019-04-06T06:29:25.249Z,10.30
2019-04-06T06:31:01.760Z,12.10
2019-04-06T06:32:37.955Z,14.30
2019-04-06T06:34:14.194Z,12.60
2019-04-06T06:35:50.703Z,14.23
2019-04-06T06:37:27.353Z,12.70
2019-04-06T06:39:05.110Z,14.70
2019-04-06T06:40:41.350Z,9.23
2019-04-06T06:42:17.415Z,13.77
2019-04-06T06:43:53.589Z,12.50
2019-04-06T06:45:29.837Z,14.67
2019-04-06T06:47:05.827Z,15.43
2019-04-06T06:48:43.071Z,9.43
2019-04-06T06:50:20.045Z,14.23
2019-04-06T06:51:56.354Z,13.73
2019-04-06T06:53:32.649Z,14.20
2019-04-06T06:55:09.377Z,16.30
2019-04-06T06:56:45.609Z,11.23
2019-04-06T06:58:25.704Z,13.20
2019-04-06T06:59:59.607Z,15.90
2019-04-06T07:01:35.784Z,14.43
2019-04-06T07:03:12.089Z,12.53
2019-04-06T07:04:48.279Z,16.03
2019-04-06T07:06:24.791Z,14.00
2019-04-06T07:08:00.984Z,11.97
2019-04-06T07:09:49.708Z,14.23
2019-04-06T07:11:26.004Z,14.70
2019-04-06T07:13:02.416Z,14.03
2019-04-06T07:14:38.757Z,10.53
2019-04-06T07:16:15.072Z,14.20
2019-04-06T07:17:51.513Z,10.57
2019-04-06T07:19:27.962Z,16.37
2019-04-06T07:21:04.372Z,15.97
2019-04-06T07:22:40.550Z,15.50
2019-04-06T07:24:16.721Z,15.17
2019-04-06T07:25:58.739Z,14.57
2019-04-06T07:27:30.903Z,14.20
2019-04-06T07:29:08.362Z,14.20
2019-04-06T07:30:44.650Z,13.10
2019-04-06T07:32:22.064Z,12.93
2019-04-06T07:33:58.308Z,13.63
2019-04-06T07:35:34.860Z,14.10
2019-04-06T07:37:11.174Z,14.63
2019-04-06T07:38:47.524Z,12.30
2019-04-06T07:40:24.239Z,15.10
2019-04-06T07:42:00.685Z,13.13
2019-04-06T07:43:36.936Z,16.33
2019-04-06T07:45:13.647Z,19.33
2019-04-06T07:46:49.390Z,19.20
2019-04-06T07:48:25.586Z,22.17
2019-04-06T07:50:01.870Z,13.97
2019-04-06T07:51:38.092Z,13.30
2019-04-06T07:53:14.406Z,14.13
2019-04-06T07:54:50.858Z,13.93
2019-04-06T07:56:27.049Z,16.07
2019-04-06T07:58:03.390Z,14.97
2019-04-06T07:59:39.807Z,14.17
2019-04-06T08:01:15.996Z,19.83
2019-04-06T08:02:52.241Z,17.60
2019-04-06T08:04:28.690Z,10.67
2019-04-06T08:06:04.958Z,7.03
2019-04-06T08:07:41.163Z,7.93
2019-04-06T08:09:17.302Z,9.10
2019-04-06T08:10:53.612Z,14.00
2019-04-06T08:12:29.857Z,14.57
2019-04-06T08:14:06.270Z,14.33
2019-04-06T08:15:42.618Z,15.00
2019-04-06T08:17:18.972Z,14.67
2019-04-06T08:18:55.388Z,14.13
2019-04-06T08:20:31.729Z,12.40
2019-04-06T08:22:08.019Z,9.97
2019-04-06T08:23:44.253Z,12.73
2019-04-06T08:25:20.658Z,12.43
2019-04-06T08:26:56.927Z,11.30
2019-04-06T08:28:33.198Z,8.20
2019-04-06T08:30:12.567Z,6.83
2019-04-06T08:31:48.884Z,12.83
2019-04-06T08:33:25.269Z,13.13
2019-04-06T08:35:01.395Z,9.93
2019-04-06T08:36:38.234Z,13.07
2019-04-06T08:38:16.099Z,14.60
2019-04-06T08:39:52.552Z,10.53
2019-04-06T08:41:28.935Z,13.47
2019-04-06T08:43:05.519Z,13.53
2019-04-06T08:44:41.656Z,10.70
2019-04-06T08:46:18.040Z,11.93
2019-04-06T08:47:54.383Z,13.87
2019-04-06T08:49:30.666Z,13.60
2019-04-06T08:51:07.009Z,14.17
2019-04-06T08:52:44.438Z,14.60
2019-04-06T08:54:20.641Z,14.63
2019-04-06T08:55:56.877Z,14.63
2019-04-06T08:57:33.969Z,14.17
2019-04-06T08:59:13.499Z,12.70
2019-04-06T09:00:49.346Z,11.40
2019-04-06T09:02:25.496Z,13.13
2019-04-06T09:04:01.744Z,14.17
2019-04-06T09:05:38.094Z,14.10
2019-04-06T09:07:14.309Z,13.23
2019-04-06T09:08:50.611Z,15.47
2019-04-06T09:10:26.852Z,12.40
2019-04-06T09:12:03.064Z,13.57
2019-04-06T09:13:40.418Z,15.17
2019-04-06T09:15:18.427Z,14.90
2019-04-06T09:16:54.634Z,15.10
2019-04-06T09:18:32.079Z,14.17
2019-04-06T09:20:09.931Z,14.50
2019-04-06T09:21:46.220Z,14.07
2019-04-06T09:23:22.598Z,12.93
2019-04-06T09:24:58.841Z,10.17
2019-04-06T09:26:35.039Z,13.47
2019-04-06T09:28:11.276Z,12.67
2019-04-06T09:29:47.531Z,14.50
2019-04-06T09:31:23.838Z,15.47
2019-04-06T09:32:59.949Z,14.80
2019-04-06T09:34:36.047Z,13.13
2019-04-06T09:36:12.440Z,13.67
2019-04-06T09:37:48.887Z,13.93
2019-04-06T09:39:25.324Z,11.87
2019-04-06T09:41:01.709Z,10.43
2019-04-06T09:42:37.900Z,13.23
2019-04-06T09:44:15.879Z,11.50
2019-04-06T09:46:00.967Z,12.07
2019-04-06T09:47:38.842Z,11.03
2019-04-06T09:49:35.195Z,12.33
2019-04-06T09:51:29.609Z,14.13
2019-04-06T09:53:07.594Z,14.57
2019-04-06T09:54:54.443Z,11.87
2019-04-06T09:56:32.558Z,12.20
2019-04-06T09:58:13.306Z,14.70
2019-04-06T10:00:03.478Z,14.00
2019-04-06T10:01:41.546Z,15.07
2019-04-06T10:03:36.305Z,15.40
2019-04-06T10:05:19.670Z,16.37
2019-04-06T10:07:03.147Z,10.43
2019-04-06T10:08:57.072Z,14.47
2019-04-06T10:10:47.094Z,13.53
2019-04-06T10:12:30.119Z,12.47
2019-04-06T10:14:06.417Z,10.80
2019-04-06T10:16:01.152Z,10.43
2019-04-06T10:17:40.316Z,12.53
2019-04-06T10:19:30.224Z,11.03
2019-04-06T10:21:08.458Z,13.10
2019-04-06T10:22:55.205Z,13.67
2019-04-06T10:24:31.075Z,14.00
2019-04-06T10:26:24.103Z,16.23
2019-04-06T10:28:14.103Z,14.40
2019-04-06T10:30:08.213Z,14.63
2019-04-06T10:31:48.865Z,15.07
2019-04-06T10:33:42.886Z,12.93
2019-04-06T10:35:27.900Z,11.27
2019-04-06T10:37:08.806Z,14.03
2019-04-06T10:39:01.842Z,14.37
2019-04-06T10:40:42.704Z,15.40
2019-04-06T10:42:29.632Z,11.17
2019-04-06T10:44:24.383Z,10.37
2019-04-06T10:46:07.817Z,14.33
2019-04-06T10:48:01.827Z,13.53
2019-04-06T10:49:42.538Z,13.37
2019-04-06T10:51:18.565Z,9.83
2019-04-06T10:53:12.908Z,7.83
2019-04-06T10:55:09.297Z,13.53
2019-04-06T10:56:48.280Z,15.20
2019-04-06T10:58:26.074Z,9.37
2019-04-06T11:00:03.951Z,15.47
2019-04-06T11:01:58.391Z,9.83
2019-04-06T11:03:34.420Z,12.27
2019-04-06T11:05:19.619Z,14.30
2019-04-06T11:07:13.680Z,14.37
2019-04-06T11:09:00.823Z,15.27
2019-04-06T11:10:42.794Z,13.77
2019-04-06T11:12:26.342Z,12.00
2019-04-06T11:14:08.379Z,14.53
2019-04-06T11:15:59.235Z,14.80
2019-04-06T11:17:37.071Z,13.63
2019-04-06T11:19:20.777Z,15.27
2019-04-06T11:20:59.257Z,13.00
2019-04-06T11:22:44.164Z,15.37
2019-04-06T11:24:20.322Z,14.17
2019-04-06T11:26:04.964Z,14.23
2019-04-06T11:27:58.992Z,14.70
2019-04-06T11:29:48.956Z,12.40
2019-04-06T11:31:24.940Z,14.20
2019-04-06T11:33:02.760Z,12.93
2019-04-06T11:34:57.071Z,13.67
2019-04-06T11:36:35.346Z,19.67
2019-04-06T11:38:29.117Z,13.77
2019-04-06T11:40:27.017Z,13.70
2019-04-06T11:42:10.643Z,15.23
2019-04-06T11:44:01.824Z,12.50
2019-04-06T11:45:37.751Z,13.37
2019-04-06T11:47:27.841Z,10.27
2019-04-06T11:49:19.284Z,10.23
2019-04-06T11:51:04.455Z,10.30
2019-04-06T11:52:42.338Z,10.70
2019-04-06T11:54:20.394Z,12.47
2019-04-06T11:55:58.279Z,9.20
2019-04-06T11:57:36.012Z,13.47
2019-04-06T11:59:30.380Z,13.90
2019-04-06T12:01:08.337Z,9.93
2019-04-06T12:02:52.564Z,13.63
2019-04-06T12:04:33.231Z,16.07
2019-04-06T12:06:31.450Z,12.70
2019-04-06T12:08:22.338Z,16.73
2019-04-06T12:10:06.334Z,11.47
2019-04-06T12:11:45.504Z,16.43
2019-04-06T12:15:33.647Z,14.27
2019-04-06T12:17:11.694Z,9.20
2019-04-06T12:19:05.123Z,12.90
2019-04-06T12:20:42.931Z,13.93
2019-04-06T12:22:29.857Z,15.70
2019-04-06T12:24:24.248Z,14.67
2019-04-06T12:26:12.329Z,15.20
2019-04-06T12:28:00.472Z,19.43
2019-04-06T12:29:38.883Z,18.13
2019-04-06T12:31:15.195Z,15.50
2019-04-06T12:33:09.460Z,14.53
2019-04-06T12:34:53.302Z,16.37
2019-04-06T12:36:31.107Z,15.83
2019-04-06T12:38:25.386Z,8.40
2019-04-06T12:40:03.551Z,12.17
2019-04-06T12:42:03.404Z,18.53
2019-04-06T12:43:39.691Z,16.87
2019-04-06T12:45:32.845Z,15.00
2019-04-06T12:47:08.871Z,15.70
2019-04-06T12:48:53.885Z,17.00
2019-04-06T12:50:45.010Z,14.93
2019-04-06T12:52:25.989Z,15.30
2019-04-06T12:54:21.329Z,16.87
2019-04-06T12:56:15.244Z,15.63
2019-04-06T12:57:58.866Z,15.63
2019-04-06T12:59:41.727Z,16.20
2019-04-06T13:01:34.903Z,16.57
2019-04-06T13:03:15.625Z,15.80
2019-04-06T13:04:56.119Z,15.30
2019-04-06T13:06:38.286Z,14.53
2019-04-06T13:08:16.155Z,13.33
2019-04-06T13:10:09.305Z,14.87
2019-04-06T13:11:48.104Z,14.63
2019-04-06T13:13:42.072Z,8.43
2019-04-06T13:15:20.400Z,13.83
2019-04-06T13:17:16.820Z,12.80
2019-04-06T13:18:53.126Z,17.77
2019-04-06T13:20:29.454Z,12.13
2019-04-06T13:22:07.502Z,13.47
2019-04-06T13:23:58.708Z,14.37
2019-04-06T13:25:55.071Z,14.83
2019-04-06T13:27:33.059Z,13.80
2019-04-06T13:29:09.170Z,13.27
2019-04-06T13:30:47.974Z,12.07
2019-04-06T13:32:29.496Z,15.90
2019-04-06T13:34:13.370Z,15.47
2019-04-06T13:36:02.998Z,8.87
2019-04-06T13:37:46.428Z,12.47
2019-04-06T13:39:24.247Z,7.73
2019-04-06T13:41:09.161Z,11.97
2019-04-06T13:42:54.090Z,13.80
2019-04-06T13:44:48.416Z,16.67
2019-04-06T13:46:35.307Z,14.23
2019-04-06T13:48:19.265Z,18.87
2019-04-06T13:50:00.151Z,17.37
2019-04-06T13:51:42.194Z,18.57
2019-04-06T13:53:23.897Z,16.97
2019-04-06T13:55:07.972Z,19.03
2019-04-06T13:56:55.154Z,21.53
2019-04-06T13:58:45.291Z,16.33
2019-04-06T14:00:24.423Z,15.83
2019-04-06T14:02:08.036Z,13.47
2019-04-06T14:04:02.950Z,15.47
2019-04-06T14:05:59.299Z,15.20
2019-04-06T14:07:38.232Z,17.03
2019-04-06T14:09:25.607Z,11.47
2019-04-06T14:11:03.675Z,13.60
2019-04-06T14:12:53.926Z,15.53
2019-04-06T14:14:32.722Z,14.07
2019-04-06T14:16:13.523Z,15.90
2019-04-06T14:17:52.510Z,9.77
2019-04-06T14:19:48.534Z,11.60
2019-04-06T14:21:26.690Z,14.47
2019-04-06T14:23:08.665Z,11.43
2019-04-06T14:24:49.472Z,13.80
2019-04-06T14:26:43.491Z,10.03
2019-04-06T14:28:21.267Z,13.03
2019-04-06T14:30:06.008Z,13.13
2019-04-06T14:31:50.882Z,11.37
2019-04-06T14:33:39.045Z,10.30
2019-04-06T14:35:17.069Z,13.07
2019-04-06T14:36:56.091Z,14.57
2019-04-06T14:38:47.799Z,9.00
2019-04-06T14:40:25.793Z,14.37
2019-04-06T14:42:09.232Z,8.60
2019-04-06T14:44:03.394Z,13.40
2019-04-06T14:45:51.705Z,13.37
2019-04-06T14:47:38.657Z,13.20
2019-04-06T14:49:28.884Z,13.33
2019-04-06T14:50:58.881Z,13.83
2019-04-06T14:52:48.840Z,13.23
2019-04-06T14:54:32.968Z,15.77
2019-04-06T14:56:27.946Z,17.07
2019-04-06T14:58:09.193Z,15.63
2019-04-06T14:59:51.529Z,15.27
2019-04-06T15:01:45.329Z,15.93
2019-04-06T15:03:27.084Z,17.90
2019-04-06T15:05:21.200Z,13.30
2019-04-06T15:07:12.144Z,13.27
2019-04-06T15:08:55.972Z,12.80
2019-04-06T15:10:39.979Z,14.23
2019-04-06T15:12:23.600Z,14.53
2019-04-06T15:14:17.773Z,17.57
2019-04-06T15:16:04.819Z,13.60
2019-04-06T15:17:55.350Z,15.73
2019-04-06T15:19:51.733Z,14.37
2019-04-06T15:21:29.819Z,14.87
2019-04-06T15:23:24.284Z,15.73
2019-04-06T15:25:18.384Z,16.70
2019-04-06T15:27:12.386Z,15.97
2019-04-06T15:29:06.835Z,13.63
2019-04-06T15:30:47.430Z,15.53
2019-04-06T15:32:28.347Z,13.47
2019-04-06T15:34:07.414Z,14.80
2019-04-06T15:35:51.683Z,16.10
2019-04-06T15:37:41.735Z,18.03
2019-04-06T15:39:34.935Z,15.63
2019-04-06T15:41:30.394Z,16.13
2019-04-06T15:43:08.278Z,19.00
2019-04-06T15:44:47.196Z,16.50
2019-04-06T15:46:25.018Z,19.03
2019-04-06T15:48:06.508Z,31.60
2019-04-06T15:49:45.002Z,22.80
2019-04-06T15:51:39.541Z,31.23
2019-04-06T15:53:29.714Z,21.17
2019-04-06T15:55:18.972Z,19.37
2019-04-06T15:57:06.880Z,19.20
2019-04-06T15:58:44.697Z,14.97
2019-04-06T16:00:26.724Z,17.67
2019-04-06T16:02:10.871Z,18.50
2019-04-06T16:03:51.511Z,23.73
2019-04-06T16:05:33.072Z,19.03
2019-04-06T16:07:32.658Z,20.00
2019-04-06T16:09:08.921Z,15.70
2019-04-06T16:10:46.949Z,14.47
2019-04-06T16:12:28.098Z,14.60
2019-04-06T16:14:22.696Z,18.27
2019-04-06T16:16:03.352Z,20.77
2019-04-06T16:17:57.517Z,23.93
2019-04-06T16:19:38.140Z,15.20
2019-04-06T16:21:30.418Z,15.20
2019-04-06T16:23:24.241Z,14.37
2019-04-06T16:25:05.799Z,14.27
2019-04-06T16:26:52.922Z,16.00
2019-04-06T16:28:37.760Z,15.63
2019-04-06T16:30:19.638Z,10.40
2019-04-06T16:31:57.528Z,15.43
2019-04-06T16:33:44.685Z,15.13
2019-04-06T16:35:23.212Z,15.43
2019-04-06T16:37:09.867Z,14.90
2019-04-06T16:38:51.655Z,43.53
2019-04-06T16:40:32.656Z,17.87
2019-04-06T16:42:27.111Z,28.47
2019-04-06T16:44:07.950Z,15.97
2019-04-06T16:45:45.835Z,30.60
2019-04-06T16:47:40.125Z,23.77
2019-04-06T16:49:33.299Z,20.33
2019-04-06T16:51:15.176Z,22.07
2019-04-06T16:53:01.997Z,22.37
2019-04-06T16:54:40.106Z,20.00
2019-04-06T16:56:21.220Z,24.17
2019-04-06T16:58:00.456Z,19.17
2019-04-06T16:59:42.260Z,22.70
2019-04-06T17:01:26.181Z,20.50
2019-04-06T17:03:07.232Z,15.47
2019-04-06T17:04:59.359Z,18.50
2019-04-06T17:06:53.624Z,16.63
2019-04-06T17:08:31.691Z,21.63
2019-04-06T17:10:17.011Z,21.47
2019-04-06T17:12:00.830Z,20.73
2019-04-06T17:13:36.872Z,24.20
2019-04-06T17:15:15.029Z,23.93
2019-04-06T17:17:09.104Z,24.77
2019-04-06T17:18:49.949Z,19.33
2019-04-06T17:20:44.698Z,18.17
2019-04-06T17:22:22.529Z,21.43
2019-04-06T17:24:12.365Z,19.00
2019-04-06T17:25:51.931Z,18.50
2019-04-06T17:27:32.044Z,18.80
2019-04-06T17:29:21.888Z,18.73
2019-04-06T17:31:19.659Z,17.73
2019-04-06T17:33:17.498Z,17.70
2019-04-06T17:35:01.386Z,19.63
2019-04-06T17:36:42.129Z,19.60
2019-04-06T17:38:24.113Z,18.27
2019-04-06T17:40:02.038Z,18.53
2019-04-06T17:41:40.023Z,17.10
2019-04-06T17:43:34.135Z,18.93
2019-04-06T17:45:20.988Z,19.40
2019-04-06T17:46:58.994Z,17.67
2019-04-06T17:48:45.402Z,18.63
2019-04-06T17:50:22.005Z,17.47
2019-04-06T17:52:06.321Z,18.07
2019-04-06T17:53:50.288Z,15.57
2019-04-06T17:55:44.609Z,18.77
2019-04-06T17:57:33.667Z,17.90
2019-04-06T17:59:27.965Z,17.30
2019-04-06T18:01:11.872Z,16.03
2019-04-06T18:03:05.652Z,17.23
2019-04-06T18:04:55.948Z,17.07
2019-04-06T18:06:51.054Z,16.77
2019-04-06T18:08:31.580Z,16.63
2019-04-06T18:10:08.117Z,17.23
2019-04-06T18:11:51.894Z,16.70
2019-04-06T18:13:36.981Z,16.00
2019-04-06T18:15:14.464Z,16.80
2019-04-06T18:16:50.601Z,18.93
2019-04-06T18:18:26.891Z,18.53
2019-04-06T18:20:03.746Z,17.90
2019-04-06T18:21:40.139Z,20.03
2019-04-06T18:23:16.477Z,18.00
2019-04-06T18:24:53.298Z,19.53
2019-04-06T18:26:29.711Z,19.97
2019-04-06T18:28:06.059Z,17.90
2019-04-06T18:29:42.362Z,17.73
2019-04-06T18:31:20.262Z,18.03
2019-04-06T18:33:01.779Z,19.00
2019-04-06T18:34:36.548Z,15.90
2019-04-06T18:36:13.057Z,17.43
2019-04-06T18:38:00.415Z,19.00
2019-04-06T18:39:36.977Z,19.97
2019-04-06T18:41:13.615Z,17.57
2019-04-06T18:42:50.199Z,17.43
2019-04-06T18:44:26.365Z,15.10
2019-04-06T18:46:02.813Z,17.50
2019-04-06T18:47:39.062Z,18.17
2019-04-06T18:49:15.388Z,19.67
2019-04-06T18:50:51.787Z,17.80
2019-04-06T18:52:28.243Z,19.40
2019-04-06T18:54:04.447Z,18.47
2019-04-06T18:55:40.900Z,19.13
2019-04-06T18:57:17.304Z,18.60
2019-04-06T18:58:57.176Z,16.33
2019-04-06T19:00:33.469Z,18.13
2019-04-06T19:02:09.742Z,13.87
2019-04-06T19:03:46.079Z,17.73
2019-04-06T19:05:22.900Z,18.07
2019-04-06T19:06:59.092Z,18.00
2019-04-06T19:08:35.301Z,19.93
2019-04-06T19:10:11.923Z,18.27
2019-04-06T19:11:54.315Z,18.37
2019-04-06T19:13:26.123Z,22.63
2019-04-06T19:15:02.446Z,21.03
2019-04-06T19:16:38.706Z,21.37
2019-04-06T19:18:14.798Z,19.97
2019-04-06T19:19:52.253Z,21.27
2019-04-06T19:21:30.397Z,22.47
2019-04-06T19:23:08.142Z,21.57
2019-04-06T19:24:44.526Z,24.80
2019-04-06T19:26:20.869Z,24.67
2019-04-06T19:27:57.200Z,25.23
2019-04-06T19:29:33.929Z,27.80
2019-04-06T19:31:10.513Z,26.83
2019-04-06T19:32:47.264Z,28.23
2019-04-06T19:34:23.693Z,26.43
2019-04-06T19:36:00.163Z,27.73
2019-04-06T19:37:36.461Z,29.93
2019-04-06T19:39:15.200Z,32.37
2019-04-06T19:40:51.352Z,28.57
2019-04-06T19:42:27.688Z,28.70
2019-04-06T19:44:03.995Z,30.23
2019-04-06T19:45:40.826Z,27.87
2019-04-06T19:47:17.244Z,27.03
2019-04-06T19:48:53.746Z,28.17
2019-04-06T19:50:30.439Z,28.57
2019-04-06T19:52:07.353Z,26.97
2019-04-06T19:53:43.710Z,30.93
2019-04-06T19:55:21.355Z,29.43
2019-04-06T19:57:01.883Z,29.57
2019-04-06T19:58:38.299Z,30.37
2019-04-06T20:00:17.867Z,29.97
2019-04-06T20:01:55.376Z,28.77
2019-04-06T20:03:36.479Z,29.87
2019-04-06T20:05:09.903Z,26.83
2019-04-06T20:06:46.633Z,29.57
2019-04-06T20:08:23.272Z,30.63
2019-04-06T20:09:59.531Z,29.13
2019-04-06T20:11:36.291Z,31.03
2019-04-06T20:13:12.518Z,28.90
2019-04-06T20:14:48.719Z,31.73
2019-04-06T20:16:25.293Z,29.23
2019-04-06T20:18:01.636Z,30.23
2019-04-06T20:19:38.040Z,31.37
2019-04-06T20:21:14.473Z,30.53
2019-04-06T20:22:50.777Z,30.50
2019-04-06T20:24:27.384Z,30.13
2019-04-06T20:26:04.031Z,32.10
2019-04-06T20:27:40.320Z,30.87
2019-04-06T20:29:17.187Z,31.97
2019-04-06T20:30:53.472Z,31.87
2019-04-06T20:32:30.182Z,31.13
2019-04-06T20:34:06.789Z,32.03
2019-04-06T20:35:43.161Z,32.53
2019-04-06T20:37:19.331Z,31.57
2019-04-06T20:38:56.610Z,34.73
2019-04-06T20:40:33.496Z,33.50
2019-04-06T20:42:09.971Z,33.77
2019-04-06T20:43:46.190Z,32.77
2019-04-06T20:45:22.546Z,37.03
2019-04-06T20:46:59.441Z,36.50
2019-04-06T20:48:35.944Z,38.90
2019-04-06T20:50:12.059Z,39.03
2019-04-06T20:51:48.785Z,34.17
2019-04-06T20:53:25.313Z,33.10
2019-04-06T20:55:01.832Z,33.27
2019-04-06T20:56:38.253Z,34.37
2019-04-06T20:58:14.690Z,34.00
2019-04-06T20:59:51.337Z,33.63
2019-04-06T21:01:27.821Z,31.97
2019-04-06T21:03:05.098Z,32.03
2019-04-06T21:04:41.677Z,31.63
2019-04-06T21:06:18.000Z,33.73
2019-04-06T21:07:54.336Z,34.17
2019-04-06T21:09:30.663Z,33.27
2019-04-06T21:11:07.224Z,29.77
2019-04-06T21:12:43.645Z,30.03
2019-04-06T21:14:20.552Z,32.13
2019-04-06T21:15:56.968Z,33.87
2019-04-06T21:17:33.309Z,35.17
2019-04-06T21:19:10.276Z,36.67
2019-04-06T21:20:46.692Z,40.23
2019-04-06T21:22:24.960Z,35.73
2019-04-06T21:24:01.542Z,38.07
2019-04-06T21:25:38.648Z,40.80
2019-04-06T21:27:15.279Z,38.07
2019-04-06T21:28:51.924Z,37.70
2019-04-06T21:30:28.723Z,39.47
2019-04-06T21:32:05.124Z,35.70
2019-04-06T21:33:45.635Z,40.97